LiveATC.Net - Listen to live air traffic control over the Internet!


ICAO: LJMS  IATA:   Airport: Murska Sobota Airport
City: Murska Sobota
Country: Slovenia   Continent: Europe
LJMB METAR Weather: LJMB 251700Z 23003KT 3000 BR OVC006 01/00 Q1025
LJMS Flight Activity (FlightAware)

LJMS CTAF
Feed Status: DOWN
Last heard on: 2020-10-24 21:33:40 (31 days 19 hours 59 minutes ago)
Archive Access: LJMS CTAF
FacilityFrequency
Murska Sobota Aerodrome Radio123.500

NOTICE

Unauthorized use prohibited. See LiveATC.net Terms of Service


Airport/ARTCC Code
Frequency Search
(e.g., 124.400, 128.75)
Site-wide search
 


Browse Feeds
Top 50 Feeds
Coverage Map
Bad Weather Areas

LiveATC FAQ
Offer LiveATC feed
Contact LiveATC.net
Press Inquiries

LiveATC on iPhone
LiveATC on Android

Windows Phone
Windows 8/10

LiveATC Mobile
(Mobile browser)

ATC Audio Archives
Interesting Recordings

LiveATC Forums


Home Page
About LiveATC.net
Make a Donation
Terms of Use
Privacy Policy

Canadian Air Freqs

AIRMETs/SIGMETs

FAA Airport Status
Nat'l Airspace Status
Arrival Demand Charts


Server Software By:
Icecast.org
Liquidsoap